createdAt,value
2017-10-01T00:02:16.732Z,15.70
2017-10-01T00:04:45.025Z,15.90
2017-10-01T00:07:13.433Z,15.70
2017-10-01T00:09:41.736Z,15.60
2017-10-01T00:12:10.032Z,15.50
2017-10-01T00:14:38.478Z,15.80
2017-10-01T00:17:06.844Z,15.90
2017-10-01T00:19:35.902Z,15.90
2017-10-01T00:22:04.215Z,15.70
2017-10-01T00:24:34.231Z,15.50
2017-10-01T00:27:03.478Z,15.60
2017-10-01T00:29:32.503Z,15.50
2017-10-01T00:32:00.767Z,15.60
2017-10-01T00:34:29.040Z,15.70
2017-10-01T00:36:57.332Z,15.60
2017-10-01T00:39:25.605Z,15.70
2017-10-01T00:41:53.911Z,15.70
2017-10-01T00:44:22.205Z,15.80
2017-10-01T00:46:50.550Z,15.40
2017-10-01T00:49:18.909Z,15.70
2017-10-01T00:51:47.214Z,15.60
2017-10-01T00:54:15.539Z,15.50
2017-10-01T00:56:44.602Z,15.40
2017-10-01T00:59:12.902Z,15.70
2017-10-01T01:01:41.200Z,15.60
2017-10-01T01:04:09.502Z,15.50
2017-10-01T01:06:38.620Z,15.30
2017-10-01T01:09:07.039Z,15.30
2017-10-01T01:11:35.288Z,15.30
2017-10-01T01:14:03.588Z,15.50
2017-10-01T01:16:33.012Z,15.60
2017-10-01T01:19:01.287Z,15.40
2017-10-01T01:21:29.607Z,15.60
2017-10-01T01:24:00.082Z,15.60
2017-10-01T01:26:35.128Z,15.50
2017-10-01T01:29:04.455Z,15.70
2017-10-01T01:31:34.517Z,15.40
2017-10-01T01:34:04.154Z,15.60
2017-10-01T01:36:33.495Z,15.60
2017-10-01T01:39:03.035Z,15.40
2017-10-01T01:41:33.157Z,15.80
2017-10-01T01:44:02.595Z,15.60
2017-10-01T01:46:31.346Z,15.40
2017-10-01T01:49:00.780Z,15.60
2017-10-01T01:51:29.723Z,15.40
2017-10-01T01:53:58.042Z,15.30
2017-10-01T01:56:27.172Z,15.20
2017-10-01T01:58:56.312Z,15.20
2017-10-01T02:01:25.584Z,15.40
2017-10-01T02:03:53.934Z,15.40
2017-10-01T02:06:23.227Z,15.20
2017-10-01T02:08:52.496Z,15.20
2017-10-01T02:11:21.833Z,15.10
2017-10-01T02:13:50.213Z,15.30
2017-10-01T02:16:19.359Z,15.50
2017-10-01T02:18:47.680Z,15.40
2017-10-01T02:21:16.201Z,15.50
2017-10-01T02:23:45.256Z,15.20
2017-10-01T02:26:13.548Z,15.40
2017-10-01T02:28:42.705Z,15.40
2017-10-01T02:31:12.004Z,15.30
2017-10-01T02:33:40.289Z,15.30
2017-10-01T02:36:09.556Z,15.30
2017-10-01T02:38:38.593Z,15.00
2017-10-01T02:41:06.910Z,15.10
2017-10-01T02:43:35.945Z,14.80
2017-10-01T02:46:04.271Z,14.70
2017-10-01T02:48:33.361Z,15.10
2017-10-01T02:51:02.539Z,14.90
2017-10-01T02:53:30.876Z,15.00
2017-10-01T02:55:59.314Z,15.00
2017-10-01T02:58:29.512Z,14.90
2017-10-01T03:00:57.813Z,14.80
2017-10-01T03:03:27.148Z,14.80
2017-10-01T03:05:56.366Z,14.90
2017-10-01T03:08:24.868Z,14.90
2017-10-01T03:10:53.205Z,14.70
2017-10-01T03:13:22.447Z,14.90
2017-10-01T03:15:50.715Z,14.90
2017-10-01T03:18:19.128Z,14.80
2017-10-01T03:20:47.387Z,14.80
2017-10-01T03:23:16.455Z,14.70
2017-10-01T03:25:44.778Z,14.70
2017-10-01T03:28:13.819Z,14.80
2017-10-01T03:30:42.182Z,14.80
2017-10-01T03:33:11.478Z,14.70
2017-10-01T03:35:41.521Z,14.80
2017-10-01T03:38:09.833Z,14.60
2017-10-01T03:40:39.051Z,14.80
2017-10-01T03:43:07.394Z,14.80
2017-10-01T03:45:35.719Z,14.80
2017-10-01T03:48:05.795Z,14.70
2017-10-01T03:50:34.128Z,14.60
2017-10-01T03:53:03.240Z,14.60
2017-10-01T03:55:31.539Z,15.10
2017-10-01T03:58:00.805Z,14.80
2017-10-01T04:00:29.818Z,14.90
2017-10-01T04:02:58.091Z,15.00
2017-10-01T04:05:27.234Z,14.60
2017-10-01T04:07:55.540Z,14.80
2017-10-01T04:10:24.585Z,14.70
2017-10-01T04:12:52.851Z,14.50
2017-10-01T04:15:30.843Z,14.40
2017-10-01T04:18:00.116Z,14.60
2017-10-01T04:20:29.134Z,14.70
2017-10-01T04:22:57.421Z,14.60
2017-10-01T04:25:25.707Z,14.80
2017-10-01T04:27:54.006Z,14.70
2017-10-01T04:30:22.283Z,14.70
2017-10-01T04:32:50.535Z,14.60
2017-10-01T04:35:18.820Z,14.50
2017-10-01T04:37:47.062Z,14.60
2017-10-01T04:40:16.080Z,14.60
2017-10-01T04:42:44.371Z,14.60
2017-10-01T04:45:12.657Z,14.50
2017-10-01T04:47:40.922Z,14.60
2017-10-01T04:50:09.198Z,14.40
2017-10-01T04:52:37.475Z,14.30
2017-10-01T04:55:05.772Z,14.30
2017-10-01T04:57:34.946Z,14.30
2017-10-01T05:00:03.223Z,14.40
2017-10-01T05:02:32.362Z,14.30
2017-10-01T05:05:01.395Z,14.30
2017-10-01T05:07:30.480Z,14.30
2017-10-01T05:09:58.751Z,14.20
2017-10-01T05:12:28.775Z,14.60
2017-10-01T05:14:57.040Z,14.30
2017-10-01T05:17:25.451Z,14.30
2017-10-01T05:19:53.734Z,14.40
2017-10-01T05:22:21.980Z,14.60
2017-10-01T05:24:50.363Z,14.20
2017-10-01T05:27:18.640Z,14.30
2017-10-01T05:29:47.821Z,14.30
2017-10-01T05:32:16.243Z,14.50
2017-10-01T05:34:44.501Z,14.30
2017-10-01T05:37:12.747Z,14.10
2017-10-01T05:39:41.806Z,14.30
2017-10-01T05:42:10.055Z,14.20
2017-10-01T05:44:38.403Z,14.40
2017-10-01T05:47:07.432Z,14.10
2017-10-01T05:49:35.692Z,14.40
2017-10-01T05:52:04.806Z,14.50
2017-10-01T05:54:33.065Z,14.00
2017-10-01T05:57:01.343Z,14.30
2017-10-01T05:59:29.599Z,14.20
2017-10-01T06:01:58.650Z,14.20
2017-10-01T06:04:26.943Z,14.10
2017-10-01T06:06:55.213Z,14.40
2017-10-01T06:09:23.688Z,14.10
2017-10-01T06:11:51.910Z,14.00
2017-10-01T06:14:20.177Z,14.20
2017-10-01T06:16:48.465Z,14.30
2017-10-01T06:19:16.738Z,14.10
2017-10-01T06:21:45.020Z,14.20
2017-10-01T06:24:14.828Z,14.20
2017-10-01T06:26:43.203Z,14.10
2017-10-01T06:29:11.500Z,14.10
2017-10-01T06:31:40.107Z,14.20
2017-10-01T06:34:08.422Z,14.20
2017-10-01T06:36:36.652Z,14.20
2017-10-01T06:39:04.940Z,14.30
2017-10-01T06:41:33.199Z,14.20
2017-10-01T06:44:01.454Z,14.40
2017-10-01T06:46:29.728Z,14.10
2017-10-01T06:48:58.031Z,14.10
2017-10-01T06:51:28.597Z,14.20
2017-10-01T06:53:58.380Z,14.20
2017-10-01T06:56:28.678Z,14.20
2017-10-01T06:58:57.113Z,14.30
2017-10-01T07:01:25.522Z,14.30
2017-10-01T07:03:53.797Z,14.10
2017-10-01T07:06:33.877Z,14.10
2017-10-01T07:09:02.219Z,14.20
2017-10-01T07:11:31.290Z,14.40
2017-10-01T07:13:59.557Z,14.50
2017-10-01T07:16:27.931Z,14.60
2017-10-01T07:18:56.199Z,14.50
2017-10-01T07:21:25.276Z,14.60
2017-10-01T07:23:54.501Z,14.60
2017-10-01T07:26:22.758Z,14.70
2017-10-01T07:28:51.012Z,14.60
2017-10-01T07:31:20.926Z,14.60
2017-10-01T07:33:49.936Z,14.70
2017-10-01T07:36:20.210Z,14.90
2017-10-01T07:38:49.380Z,15.10
2017-10-01T07:41:17.905Z,14.80
2017-10-01T07:43:46.195Z,15.20
2017-10-01T07:46:15.247Z,14.90
2017-10-01T07:48:45.299Z,15.40
2017-10-01T07:51:14.321Z,15.20
2017-10-01T07:53:43.644Z,15.20
2017-10-01T07:56:12.749Z,15.40
2017-10-01T07:58:40.999Z,15.50
2017-10-01T08:01:09.289Z,15.10
2017-10-01T08:03:37.634Z,15.60
2017-10-01T08:06:05.941Z,15.30
2017-10-01T08:08:35.074Z,15.50
2017-10-01T08:11:03.342Z,15.60
2017-10-01T08:13:31.616Z,15.50
2017-10-01T08:15:59.999Z,15.70
2017-10-01T08:18:29.894Z,15.90
2017-10-01T08:20:58.145Z,15.90
2017-10-01T08:23:26.475Z,15.90
2017-10-01T08:25:54.831Z,15.80
2017-10-01T08:28:23.117Z,15.70
2017-10-01T08:30:52.228Z,16.00
2017-10-01T08:33:20.512Z,16.20
2017-10-01T08:35:48.809Z,16.00
2017-10-01T08:38:17.851Z,16.30
2017-10-01T08:40:46.933Z,16.00
2017-10-01T08:43:15.235Z,16.30
2017-10-01T08:45:43.594Z,16.30
2017-10-01T08:48:11.871Z,16.20
2017-10-01T08:50:40.120Z,16.10
2017-10-01T08:53:08.431Z,16.10
2017-10-01T08:55:36.748Z,16.50
2017-10-01T08:58:05.107Z,16.30
2017-10-01T09:00:35.237Z,16.40
2017-10-01T09:03:03.558Z,16.30
2017-10-01T09:05:31.869Z,16.60
2017-10-01T09:08:00.190Z,16.70
2017-10-01T09:10:29.287Z,16.90
2017-10-01T09:12:58.383Z,16.70
2017-10-01T09:15:26.704Z,16.90
2017-10-01T09:17:55.126Z,16.80
2017-10-01T09:20:24.243Z,17.10
2017-10-01T09:22:53.306Z,17.00
2017-10-01T09:25:22.637Z,17.10
2017-10-01T09:27:51.796Z,17.10
2017-10-01T09:30:20.155Z,17.20
2017-10-01T09:32:49.297Z,17.00
2017-10-01T09:35:18.256Z,17.30
2017-10-01T09:37:48.730Z,17.40
2017-10-01T09:40:17.760Z,17.10
2017-10-01T09:42:46.881Z,17.50
2017-10-01T09:45:15.264Z,17.60
2017-10-01T09:47:45.274Z,17.60
2017-10-01T09:50:13.561Z,17.70
2017-10-01T09:52:42.604Z,17.70
2017-10-01T09:55:12.456Z,17.50
2017-10-01T09:57:41.510Z,17.50
2017-10-01T10:00:09.815Z,17.50
2017-10-01T10:02:39.137Z,17.80
2017-10-01T10:05:08.229Z,17.90
2017-10-01T10:07:36.616Z,17.70
2017-10-01T10:10:04.978Z,17.80
2017-10-01T10:12:36.216Z,18.00
2017-10-01T10:15:04.528Z,18.10
2017-10-01T10:17:33.919Z,18.40
2017-10-01T10:20:03.015Z,18.30
2017-10-01T10:22:32.953Z,18.10
2017-10-01T10:25:02.177Z,18.30
2017-10-01T10:27:30.437Z,18.40
2017-10-01T10:29:58.747Z,18.40
2017-10-01T10:32:27.062Z,18.30
2017-10-01T10:34:55.384Z,18.20
2017-10-01T10:37:23.667Z,18.60
2017-10-01T10:39:51.947Z,18.40
2017-10-01T10:42:20.268Z,18.60
2017-10-01T10:44:49.388Z,18.70
2017-10-01T10:47:17.746Z,18.50
2017-10-01T10:49:46.931Z,18.60
2017-10-01T10:52:15.173Z,18.60
2017-10-01T10:54:43.529Z,18.60
2017-10-01T10:57:11.886Z,18.80
2017-10-01T10:59:40.948Z,18.90
2017-10-01T11:02:09.272Z,18.70
2017-10-01T11:04:37.619Z,18.80
2017-10-01T11:07:05.992Z,19.00
2017-10-01T11:09:35.071Z,18.80
2017-10-01T11:12:03.356Z,18.70
2017-10-01T11:14:31.838Z,19.00
2017-10-01T11:17:01.140Z,19.00
2017-10-01T11:19:30.236Z,19.20
2017-10-01T11:21:59.511Z,19.00
2017-10-01T11:24:27.814Z,19.00
2017-10-01T11:26:56.926Z,19.20
2017-10-01T11:29:25.288Z,19.10
2017-10-01T11:31:53.548Z,19.30
2017-10-01T11:34:21.996Z,19.30
2017-10-01T11:36:50.297Z,19.10
2017-10-01T11:39:19.259Z,19.30
2017-10-01T11:41:47.572Z,19.30
2017-10-01T11:44:18.739Z,19.10
2017-10-01T11:46:47.940Z,19.30
2017-10-01T11:49:16.180Z,19.20
2017-10-01T11:51:46.570Z,19.20
2017-10-01T11:54:15.865Z,19.10
2017-10-01T11:56:44.908Z,19.20
2017-10-01T11:59:16.980Z,19.20
2017-10-01T12:01:45.239Z,19.20
2017-10-01T12:04:13.574Z,19.60
2017-10-01T12:06:41.875Z,19.50
2017-10-01T12:09:11.089Z,19.50
2017-10-01T12:11:39.416Z,19.40
2017-10-01T12:14:07.721Z,19.50
2017-10-01T12:16:36.782Z,19.50
2017-10-01T12:19:05.082Z,19.50
2017-10-01T12:21:33.409Z,19.40
2017-10-01T12:24:01.765Z,19.60
2017-10-01T12:26:30.056Z,19.40
2017-10-01T12:28:58.346Z,19.70
2017-10-01T12:31:27.552Z,20.00
2017-10-01T12:33:58.243Z,19.80
2017-10-01T12:36:26.549Z,19.80
2017-10-01T12:38:55.046Z,20.10
2017-10-01T12:41:23.306Z,19.80
2017-10-01T12:43:51.598Z,19.90
2017-10-01T12:46:20.838Z,20.10
2017-10-01T12:48:49.152Z,20.20
2017-10-01T12:51:17.480Z,20.20
2017-10-01T12:53:46.545Z,20.20
2017-10-01T12:56:15.623Z,20.00
2017-10-01T12:58:43.984Z,20.00
2017-10-01T13:01:12.254Z,19.90
2017-10-01T13:03:40.581Z,19.70
2017-10-01T13:06:08.912Z,19.70
2017-10-01T13:08:37.255Z,19.70
2017-10-01T13:11:06.347Z,19.80
2017-10-01T13:13:34.811Z,19.80
2017-10-01T13:16:04.152Z,20.10
2017-10-01T13:18:32.437Z,19.80
2017-10-01T13:21:00.734Z,20.10
2017-10-01T13:23:29.804Z,20.10
2017-10-01T13:25:58.838Z,20.20
2017-10-01T13:28:28.970Z,20.10
2017-10-01T13:30:57.722Z,20.20
2017-10-01T13:33:28.259Z,20.20
2017-10-01T13:35:57.308Z,20.10
2017-10-01T13:38:25.685Z,20.10
2017-10-01T13:40:54.069Z,20.20
2017-10-01T13:43:23.449Z,20.30
2017-10-01T13:45:51.834Z,20.30
2017-10-01T13:48:20.167Z,20.20
2017-10-01T13:50:48.498Z,20.20
2017-10-01T13:53:17.718Z,19.70
2017-10-01T13:55:47.078Z,20.10
2017-10-01T13:58:16.332Z,19.90
2017-10-01T14:00:45.585Z,20.10
2017-10-01T14:03:15.131Z,19.90
2017-10-01T14:05:45.449Z,20.00
2017-10-01T14:08:15.208Z,19.90
2017-10-01T14:10:44.907Z,20.30
2017-10-01T14:13:14.149Z,20.20
2017-10-01T14:15:42.713Z,20.10
2017-10-01T14:18:11.324Z,20.30
2017-10-01T14:20:40.145Z,20.40
2017-10-01T14:23:09.840Z,19.80
2017-10-01T14:25:40.163Z,20.40
2017-10-01T14:28:08.455Z,20.40
2017-10-01T14:30:42.735Z,20.30
2017-10-01T14:33:11.168Z,20.30
2017-10-01T14:35:40.931Z,20.40
2017-10-01T14:38:09.629Z,20.30
2017-10-01T14:40:39.027Z,20.10
2017-10-01T14:43:09.197Z,20.10
2017-10-01T14:45:39.069Z,20.20
2017-10-01T14:48:07.795Z,20.20
2017-10-01T14:50:37.150Z,20.10
2017-10-01T14:53:06.413Z,20.00
2017-10-01T14:55:36.337Z,20.00
2017-10-01T14:58:04.672Z,19.80
2017-10-01T15:00:33.828Z,19.90
2017-10-01T15:03:03.151Z,19.70
2017-10-01T15:05:31.433Z,19.70
2017-10-01T15:07:59.838Z,20.10
2017-10-01T15:10:28.967Z,20.10
2017-10-01T15:12:57.308Z,20.00
2017-10-01T15:15:27.241Z,20.00
2017-10-01T15:17:55.669Z,19.90
2017-10-01T15:20:24.121Z,19.80
2017-10-01T15:22:52.512Z,20.00
2017-10-01T15:25:21.675Z,19.80
2017-10-01T15:27:50.065Z,19.90
2017-10-01T15:30:19.312Z,20.20
2017-10-01T15:32:49.524Z,20.20
2017-10-01T15:35:20.006Z,19.90
2017-10-01T15:37:50.066Z,19.80
2017-10-01T15:40:18.607Z,19.80
2017-10-01T15:42:47.049Z,19.60
2017-10-01T15:45:15.440Z,20.00
2017-10-01T15:47:43.791Z,19.60
2017-10-01T15:50:12.109Z,19.80
2017-10-01T15:52:41.375Z,19.60
2017-10-01T15:55:09.830Z,19.80
2017-10-01T15:57:40.005Z,19.80
2017-10-01T16:00:08.629Z,20.00
2017-10-01T16:02:37.306Z,19.80
2017-10-01T16:05:05.792Z,19.70
2017-10-01T16:07:34.251Z,19.80
2017-10-01T16:10:02.698Z,19.70
2017-10-01T16:12:32.933Z,19.90
2017-10-01T16:15:01.561Z,19.90
2017-10-01T16:17:30.995Z,19.70
2017-10-01T16:19:59.600Z,19.70
2017-10-01T16:22:28.072Z,19.60
2017-10-01T16:24:57.492Z,19.40
2017-10-01T16:27:25.958Z,19.50
2017-10-01T16:29:54.622Z,19.50
2017-10-01T16:32:23.083Z,19.50
2017-10-01T16:34:51.464Z,19.70
2017-10-01T16:37:21.465Z,19.50
2017-10-01T16:39:50.566Z,19.50
2017-10-01T16:42:18.936Z,19.40
2017-10-01T16:44:49.891Z,19.70
2017-10-01T16:47:18.552Z,19.50
2017-10-01T16:49:47.958Z,19.40
2017-10-01T16:52:16.443Z,19.30
2017-10-01T16:54:44.867Z,19.50
2017-10-01T16:57:14.198Z,19.50
2017-10-01T16:59:45.709Z,19.40
2017-10-01T17:02:14.314Z,19.60
2017-10-01T17:04:43.774Z,19.60
2017-10-01T17:07:12.586Z,19.20
2017-10-01T17:09:42.596Z,19.70
2017-10-01T17:12:11.822Z,19.30
2017-10-01T17:14:40.312Z,19.30
2017-10-01T17:17:09.980Z,19.20
2017-10-01T17:19:38.764Z,19.20
2017-10-01T17:22:07.698Z,19.30
2017-10-01T17:24:37.017Z,19.20
2017-10-01T17:27:07.258Z,19.40
2017-10-01T17:29:35.866Z,19.40
2017-10-01T17:32:04.471Z,19.10
2017-10-01T17:34:33.122Z,19.10
2017-10-01T17:37:02.969Z,19.20
2017-10-01T17:39:33.513Z,19.10
2017-10-01T17:42:01.812Z,19.00
2017-10-01T17:44:30.410Z,19.10
2017-10-01T17:47:00.575Z,18.70
2017-10-01T17:49:30.189Z,19.00
2017-10-01T17:51:58.660Z,19.20
2017-10-01T17:54:28.128Z,19.00
2017-10-01T17:56:56.818Z,18.90
2017-10-01T17:59:26.018Z,19.10
2017-10-01T18:01:55.363Z,19.10
2017-10-01T18:04:26.357Z,18.90
2017-10-01T18:06:55.647Z,18.90
2017-10-01T18:09:23.969Z,19.10
2017-10-01T18:11:52.494Z,18.70
2017-10-01T18:14:21.113Z,18.70
2017-10-01T18:16:51.065Z,18.90
2017-10-01T18:19:20.654Z,18.80
2017-10-01T18:21:50.035Z,18.60
2017-10-01T18:24:20.550Z,18.80
2017-10-01T18:26:51.385Z,18.50
2017-10-01T18:29:21.518Z,18.50
2017-10-01T18:31:50.110Z,18.40
2017-10-01T18:34:18.871Z,18.50
2017-10-01T18:36:47.792Z,18.30
2017-10-01T18:39:17.227Z,18.40
2017-10-01T18:41:46.930Z,18.50
2017-10-01T18:44:16.613Z,18.30
2017-10-01T18:46:46.519Z,18.60
2017-10-01T18:49:15.092Z,18.50
2017-10-01T18:51:43.541Z,18.20
2017-10-01T18:54:12.064Z,18.70
2017-10-01T18:56:41.321Z,18.50
2017-10-01T18:59:10.050Z,18.60
2017-10-01T19:01:41.046Z,18.70
2017-10-01T19:04:10.191Z,18.40
2017-10-01T19:06:39.191Z,18.70
2017-10-01T19:09:09.364Z,18.70
2017-10-01T19:11:38.917Z,18.40
2017-10-01T19:14:07.774Z,18.40
2017-10-01T19:16:37.184Z,18.40
2017-10-01T19:19:06.603Z,18.30
2017-10-01T19:21:35.286Z,18.20
2017-10-01T19:24:04.491Z,18.50
2017-10-01T19:26:36.408Z,18.20
2017-10-01T19:29:05.824Z,18.40
2017-10-01T19:31:34.186Z,18.20
2017-10-01T19:34:03.529Z,18.00
2017-10-01T19:36:36.320Z,18.00
2017-10-01T19:39:06.590Z,18.50
2017-10-01T19:41:39.678Z,18.50
2017-10-01T19:44:09.418Z,18.40
2017-10-01T19:46:45.319Z,18.50
2017-10-01T19:49:18.225Z,18.20
2017-10-01T19:51:51.118Z,18.40
2017-10-01T19:54:26.917Z,18.20
2017-10-01T19:56:59.767Z,18.00
2017-10-01T19:59:31.218Z,18.10
2017-10-01T20:02:04.456Z,18.40
2017-10-01T20:04:37.208Z,18.00
2017-10-01T20:07:09.927Z,18.10
2017-10-01T20:09:44.107Z,18.30
2017-10-01T20:12:16.558Z,18.00
2017-10-01T20:14:48.197Z,18.00
2017-10-01T20:17:22.903Z,18.00
2017-10-01T20:19:56.166Z,17.70
2017-10-01T20:22:29.970Z,17.70
2017-10-01T20:25:03.918Z,18.00
2017-10-01T20:27:41.207Z,18.00
2017-10-01T20:30:13.327Z,17.90
2017-10-01T20:32:45.300Z,17.90
2017-10-01T20:35:19.410Z,18.00
2017-10-01T20:37:50.928Z,17.90
2017-10-01T20:40:22.806Z,17.80
2017-10-01T20:42:53.391Z,18.00
2017-10-01T20:45:24.583Z,18.20
2017-10-01T20:47:55.425Z,18.10
2017-10-01T20:50:26.341Z,18.10
2017-10-01T20:52:56.845Z,17.80
2017-10-01T20:55:28.417Z,17.80
2017-10-01T20:57:57.361Z,17.90
2017-10-01T21:00:27.028Z,17.90
2017-10-01T21:02:55.906Z,17.80
2017-10-01T21:05:26.542Z,17.60
2017-10-01T21:07:55.489Z,17.80
2017-10-01T21:10:25.828Z,17.60
2017-10-01T21:12:54.776Z,17.90
2017-10-01T21:15:23.485Z,18.00
2017-10-01T21:17:52.186Z,17.90
2017-10-01T21:20:20.594Z,17.80
2017-10-01T21:22:48.956Z,17.90
2017-10-01T21:25:18.841Z,17.90
2017-10-01T21:27:48.859Z,17.70
2017-10-01T21:30:17.156Z,17.90
2017-10-01T21:32:47.111Z,17.90
2017-10-01T21:35:15.497Z,17.70
2017-10-01T21:37:44.809Z,17.90
2017-10-01T21:40:13.149Z,17.90
2017-10-01T21:42:41.498Z,17.70
2017-10-01T21:45:09.827Z,17.90
2017-10-01T21:47:38.241Z,17.60
2017-10-01T21:50:06.650Z,17.60
2017-10-01T21:52:34.966Z,17.70
2017-10-01T21:55:04.065Z,17.80
2017-10-01T21:57:32.448Z,17.60
2017-10-01T22:00:01.689Z,17.80
2017-10-01T22:02:30.011Z,17.80
2017-10-01T22:04:58.308Z,17.70
2017-10-01T22:07:26.611Z,17.80
2017-10-01T22:09:54.868Z,17.90
2017-10-01T22:12:23.945Z,18.00
2017-10-01T22:14:52.285Z,17.80
2017-10-01T22:17:20.640Z,17.80
2017-10-01T22:19:49.704Z,17.80
2017-10-01T22:22:17.977Z,18.00
2017-10-01T22:24:46.247Z,17.60
2017-10-01T22:27:14.559Z,17.50
2017-10-01T22:29:42.838Z,17.80
2017-10-01T22:32:11.169Z,17.50
2017-10-01T22:34:39.413Z,17.50
2017-10-01T22:37:08.461Z,17.50
2017-10-01T22:39:36.732Z,17.90
2017-10-01T22:42:05.140Z,17.50
2017-10-01T22:44:34.391Z,17.70
2017-10-01T22:47:02.666Z,17.60
2017-10-01T22:49:30.941Z,17.60
2017-10-01T22:51:59.188Z,17.40
2017-10-01T22:54:28.230Z,17.50
2017-10-01T22:56:56.679Z,17.50
2017-10-01T22:59:24.985Z,17.60
2017-10-01T23:01:53.432Z,17.50
2017-10-01T23:04:22.456Z,17.60
2017-10-01T23:06:51.801Z,17.50
2017-10-01T23:09:21.095Z,17.60
2017-10-01T23:11:50.361Z,17.60
2017-10-01T23:14:18.706Z,17.50
2017-10-01T23:16:48.742Z,17.60
2017-10-01T23:19:17.029Z,17.40
2017-10-01T23:21:45.322Z,17.50
2017-10-01T23:24:13.568Z,17.60
2017-10-01T23:26:41.896Z,17.80
2017-10-01T23:29:11.092Z,17.70
2017-10-01T23:31:39.576Z,17.40
2017-10-01T23:34:07.809Z,17.80
2017-10-01T23:36:36.230Z,17.70
2017-10-01T23:39:04.749Z,17.60
2017-10-01T23:41:34.006Z,17.60
2017-10-01T23:44:02.304Z,17.70
2017-10-01T23:46:32.341Z,17.40
2017-10-01T23:49:01.662Z,17.30
2017-10-01T23:51:30.851Z,17.60
2017-10-01T23:53:59.168Z,17.40
2017-10-01T23:56:28.449Z,17.40
2017-10-01T23:58:56.744Z,17.20
